createdAt,value
2023-03-11T00:01:29.438Z,16.26
2023-03-11T00:06:36.128Z,16.23
2023-03-11T00:11:39.236Z,16.21
2023-03-11T00:16:42.405Z,16.27
2023-03-11T00:21:46.988Z,16.28
2023-03-11T00:26:50.163Z,16.27
2023-03-11T00:31:53.380Z,16.15
2023-03-11T00:36:57.944Z,16.18
2023-03-11T00:42:01.320Z,16.08
2023-03-11T00:47:04.540Z,16.18
2023-03-11T00:52:09.164Z,16.24
2023-03-11T00:57:12.328Z,16.21
2023-03-11T01:02:15.477Z,16.19
2023-03-11T01:07:20.028Z,16.21
2023-03-11T01:12:23.189Z,16.27
2023-03-11T01:17:26.351Z,16.27
2023-03-11T01:22:30.960Z,16.33
2023-03-11T01:27:34.103Z,16.32
2023-03-11T01:32:37.346Z,16.35
2023-03-11T01:37:42.165Z,16.38
2023-03-11T01:42:45.069Z,16.26
2023-03-11T01:47:48.185Z,16.31
2023-03-11T01:52:52.796Z,16.36
2023-03-11T01:57:56.633Z,16.31
2023-03-11T02:03:03.348Z,16.32
2023-03-11T02:08:09.147Z,16.36
2023-03-11T02:13:13.016Z,16.41
2023-03-11T02:18:18.695Z,16.47
2023-03-11T02:23:28.929Z,16.47
2023-03-11T02:28:36.130Z,16.45
2023-03-11T02:33:39.639Z,16.49
2023-03-11T02:38:42.776Z,16.45
2023-03-11T02:43:48.206Z,16.48
2023-03-11T02:48:52.541Z,16.48
2023-03-11T02:54:01.078Z,16.46
2023-03-11T02:59:05.664Z,16.45
2023-03-11T03:04:08.913Z,16.48
2023-03-11T03:09:12.236Z,16.50
2023-03-11T03:14:16.834Z,16.45
2023-03-11T03:19:20.081Z,16.41
2023-03-11T03:24:23.220Z,16.43
2023-03-11T03:29:27.854Z,16.45
2023-03-11T03:34:30.996Z,16.43
2023-03-11T03:39:34.312Z,16.41
2023-03-11T03:44:38.857Z,16.45
2023-03-11T03:49:42.049Z,16.40
2023-03-11T03:54:45.289Z,16.36
2023-03-11T03:59:49.833Z,16.41
2023-03-11T04:04:53.079Z,16.35
2023-03-11T04:09:56.191Z,16.36
2023-03-11T04:15:00.796Z,16.39
2023-03-11T04:20:04.479Z,16.37
2023-03-11T04:25:08.766Z,16.29
2023-03-11T04:30:14.574Z,16.27
2023-03-11T04:35:17.806Z,16.29
2023-03-11T04:40:21.280Z,16.27
2023-03-11T04:45:25.813Z,16.30
2023-03-11T04:50:28.987Z,16.33
2023-03-11T04:55:33.541Z,16.23
2023-03-11T05:00:38.255Z,16.27
2023-03-11T05:05:41.481Z,16.17
2023-03-11T05:10:44.700Z,16.18
2023-03-11T05:15:49.911Z,16.12
2023-03-11T05:20:53.644Z,16.08
2023-03-11T05:25:56.922Z,16.18
2023-03-11T05:31:01.707Z,16.24
2023-03-11T05:36:05.930Z,16.25
2023-03-11T05:41:09.188Z,16.25
2023-03-11T05:46:14.263Z,16.20
2023-03-11T05:51:17.526Z,16.26
2023-03-11T05:56:22.468Z,16.22
2023-03-11T06:01:27.320Z,16.28
2023-03-11T06:06:30.583Z,16.13
2023-03-11T06:11:33.976Z,16.21
2023-03-11T06:16:38.719Z,16.19
2023-03-11T06:21:41.725Z,16.11
2023-03-11T06:26:45.317Z,16.19
2023-03-11T06:31:50.000Z,16.16
2023-03-11T06:36:54.946Z,16.20
2023-03-11T06:41:57.920Z,16.16
2023-03-11T06:47:03.840Z,16.13
2023-03-11T06:52:07.783Z,16.17
2023-03-11T06:57:12.017Z,16.21
2023-03-11T07:02:18.141Z,16.19
2023-03-11T07:07:21.645Z,16.24
2023-03-11T07:12:25.663Z,16.25
2023-03-11T07:17:30.312Z,16.25
2023-03-11T07:22:33.561Z,16.26
2023-03-11T07:27:36.870Z,16.31
2023-03-11T07:32:42.742Z,16.24
2023-03-11T07:37:46.004Z,16.20
2023-03-11T07:42:49.264Z,16.26
2023-03-11T07:47:54.103Z,16.22
2023-03-11T07:52:57.078Z,16.16
2023-03-11T07:58:00.319Z,16.28
2023-03-11T08:03:04.996Z,16.37
2023-03-11T08:08:08.312Z,16.37
2023-03-11T08:13:11.536Z,16.51
2023-03-11T08:18:17.068Z,16.50
2023-03-11T08:23:20.420Z,16.56
2023-03-11T08:28:23.711Z,16.56
2023-03-11T08:33:28.700Z,16.41
2023-03-11T08:38:32.163Z,16.56
2023-03-11T08:43:36.081Z,16.67
2023-03-11T08:48:40.853Z,16.78
2023-03-11T08:53:44.184Z,16.81
2023-03-11T08:58:47.872Z,16.88
2023-03-11T09:03:52.771Z,16.95
2023-03-11T09:08:56.069Z,16.88
2023-03-11T09:13:59.334Z,16.91
2023-03-11T09:19:07.503Z,16.90
2023-03-11T09:24:10.849Z,16.83
2023-03-11T09:29:14.113Z,16.80
2023-03-11T09:34:18.819Z,16.77
2023-03-11T09:39:21.802Z,16.54
2023-03-11T09:44:32.845Z,16.66
2023-03-11T09:49:50.188Z,16.79
2023-03-11T09:54:57.100Z,16.98
2023-03-11T10:00:03.646Z,17.00
2023-03-11T10:05:15.309Z,17.19
2023-03-11T10:10:19.666Z,17.40
2023-03-11T10:15:31.340Z,17.62
2023-03-11T10:20:47.062Z,17.66
2023-03-11T10:26:00.177Z,17.82
2023-03-11T10:31:09.039Z,18.05
2023-03-11T10:36:17.453Z,18.11
2023-03-11T10:41:25.253Z,18.36
2023-03-11T10:46:30.524Z,18.62
2023-03-11T10:51:36.600Z,19.20
2023-03-11T10:56:41.825Z,19.41
2023-03-11T11:01:56.496Z,19.07
2023-03-11T11:07:20.788Z,18.94
2023-03-11T11:12:23.927Z,19.01
2023-03-11T11:17:31.476Z,18.95
2023-03-11T11:22:36.731Z,18.76
2023-03-11T11:27:39.905Z,18.81
2023-03-11T11:32:43.269Z,19.03
2023-03-11T11:37:49.917Z,18.97
2023-03-11T11:42:56.921Z,18.78
2023-03-11T11:48:04.498Z,18.95
2023-03-11T11:53:20.645Z,19.27
2023-03-11T11:58:24.135Z,19.09
2023-03-11T12:03:53.856Z,18.99
2023-03-11T12:09:08.625Z,18.93
2023-03-11T12:14:16.167Z,18.78
2023-03-11T12:19:26.991Z,18.74
2023-03-11T12:24:51.523Z,18.56
2023-03-11T12:29:57.726Z,18.64
2023-03-11T12:35:05.663Z,18.65
2023-03-11T12:40:57.546Z,18.48
2023-03-11T12:46:02.576Z,18.26
2023-03-11T12:51:06.461Z,18.10
2023-03-11T12:56:18.433Z,18.06
2023-03-11T13:01:41.970Z,17.97
2023-03-11T13:07:08.352Z,17.97
2023-03-11T13:12:44.076Z,18.00
2023-03-11T13:18:00.365Z,18.03
2023-03-11T13:23:22.530Z,17.91
2023-03-11T13:28:51.161Z,17.84
2023-03-11T13:33:57.748Z,17.84
2023-03-11T13:39:31.805Z,17.86
2023-03-11T13:44:38.048Z,17.82
2023-03-11T13:49:46.536Z,17.77
2023-03-11T13:54:55.332Z,17.80
2023-03-11T13:59:59.426Z,17.84
2023-03-11T14:05:08.179Z,17.84
2023-03-11T14:10:23.153Z,17.80
2023-03-11T14:15:28.081Z,17.85
2023-03-11T14:20:32.777Z,17.76
2023-03-11T14:25:36.827Z,17.69
2023-03-11T14:30:40.120Z,17.71
2023-03-11T15:12:50.012Z,18.22
2023-03-11T15:17:57.834Z,18.08
2023-03-11T15:23:03.141Z,18.03
2023-03-11T15:28:32.518Z,18.04
2023-03-11T15:33:35.675Z,18.29
2023-03-11T15:38:38.891Z,18.31
2023-03-11T15:43:48.458Z,18.19
2023-03-11T15:48:51.625Z,18.16
2023-03-11T15:53:54.773Z,18.09
2023-03-11T15:58:59.541Z,18.05
2023-03-11T16:04:02.912Z,18.02
2023-03-11T16:09:06.394Z,17.98
2023-03-11T16:14:17.023Z,17.92
2023-03-11T16:19:20.236Z,17.83
2023-03-11T16:24:26.564Z,17.82
2023-03-11T16:29:31.223Z,17.79
2023-03-11T16:34:34.286Z,17.75
2023-03-11T16:39:38.923Z,17.86
2023-03-11T16:44:43.334Z,17.82
2023-03-11T16:49:46.549Z,17.69
2023-03-11T16:54:50.401Z,17.67
2023-03-11T16:59:55.106Z,17.66
2023-03-11T17:04:58.173Z,17.65
2023-03-11T17:10:01.814Z,17.75
2023-03-11T17:15:08.640Z,17.83
2023-03-11T17:20:13.339Z,17.81
2023-03-11T17:30:37.180Z,17.74
2023-03-11T17:35:41.118Z,17.76
2023-03-11T17:40:44.326Z,17.77
2023-03-11T17:45:48.951Z,17.70
2023-03-11T17:50:51.979Z,17.53
2023-03-11T17:55:55.160Z,17.67
2023-03-11T18:01:00.541Z,17.67
2023-03-11T18:06:05.889Z,17.66
2023-03-11T18:11:11.316Z,17.55
2023-03-11T18:16:18.287Z,17.55
2023-03-11T18:21:23.870Z,17.55
2023-03-11T18:26:29.960Z,17.50
2023-03-11T18:31:34.732Z,17.50
2023-03-11T18:36:38.654Z,17.48
2023-03-11T18:41:42.978Z,17.42
2023-03-11T18:46:47.652Z,17.34
2023-03-11T18:51:50.596Z,17.23
2023-03-11T18:56:53.898Z,17.27
2023-03-11T19:01:58.537Z,17.19
2023-03-11T19:07:01.803Z,17.16
2023-03-11T19:12:05.334Z,17.19
2023-03-11T19:17:10.068Z,17.17
2023-03-11T19:22:13.325Z,17.17
2023-03-11T19:27:16.566Z,17.07
2023-03-11T19:32:21.240Z,16.95
2023-03-11T19:37:24.215Z,16.84
2023-03-11T19:42:27.430Z,16.79
2023-03-11T19:47:32.117Z,16.78
2023-03-11T19:52:36.314Z,16.65
2023-03-11T19:57:39.682Z,16.69
2023-03-11T20:02:44.925Z,16.70
2023-03-11T20:07:48.307Z,16.72
2023-03-11T20:13:01.796Z,16.69
2023-03-11T20:18:08.271Z,16.69
2023-03-11T20:23:11.599Z,16.70
2023-03-11T20:28:15.008Z,16.67
2023-03-11T20:33:19.751Z,16.65
2023-03-11T20:38:22.747Z,16.54
2023-03-11T20:43:26.111Z,16.62
2023-03-11T20:48:31.780Z,16.61
2023-03-11T20:53:35.721Z,16.66
2023-03-11T20:58:39.782Z,16.68
2023-03-11T21:03:45.159Z,16.51
2023-03-11T21:08:49.430Z,16.51
2023-03-11T21:13:53.174Z,16.30
2023-03-11T21:18:57.979Z,16.19
2023-03-11T21:24:01.126Z,16.20
2023-03-11T21:29:04.972Z,16.20
2023-03-11T21:34:11.995Z,16.15
2023-03-11T21:39:15.530Z,16.12
2023-03-11T21:44:19.180Z,16.11
2023-03-11T21:49:24.304Z,16.08
2023-03-11T21:54:27.763Z,16.18
2023-03-11T21:59:31.492Z,16.20
2023-03-11T22:04:36.253Z,16.16
2023-03-11T22:09:39.480Z,16.09
2023-03-11T22:14:42.827Z,15.97
2023-03-11T22:19:47.800Z,15.89
2023-03-11T22:24:51.061Z,15.94
2023-03-11T22:29:54.335Z,15.71
2023-03-11T22:34:59.031Z,15.67
2023-03-11T22:40:02.258Z,15.63
2023-03-11T22:45:06.457Z,15.60
2023-03-11T22:50:12.345Z,15.47
2023-03-11T22:55:15.616Z,15.45
2023-03-11T23:00:21.219Z,15.37
2023-03-11T23:05:25.963Z,15.36
2023-03-11T23:10:29.177Z,15.26
2023-03-11T23:15:32.511Z,15.21
2023-03-11T23:20:38.510Z,15.27
2023-03-11T23:25:42.696Z,15.10
2023-03-11T23:30:45.941Z,15.16
2023-03-11T23:35:50.599Z,15.02
2023-03-11T23:40:53.864Z,15.10
2023-03-11T23:45:57.098Z,15.04
2023-03-11T23:51:02.347Z,15.14
2023-03-11T23:56:11.150Z,15.19
